sensor_id;sensor_type;location;lat;lon;timestamp;P1;durP1;ratioP1;P2;durP2;ratioP2
59074;SDS011;44860;53.020;6.738;2023-02-05T00:01:49;14.60;;;10.45;;
59074;SDS011;44860;53.020;6.738;2023-02-05T00:04:15;12.95;;;10.43;;
59074;SDS011;44860;53.020;6.738;2023-02-05T00:06:41;14.52;;;10.55;;
59074;SDS011;44860;53.020;6.738;2023-02-05T00:09:07;14.27;;;10.30;;
59074;SDS011;44860;53.020;6.738;2023-02-05T00:11:33;12.43;;;9.80;;
59074;SDS011;44860;53.020;6.738;2023-02-05T00:13:58;14.13;;;10.27;;
59074;SDS011;44860;53.020;6.738;2023-02-05T00:16:24;12.95;;;10.35;;
59074;SDS011;44860;53.020;6.738;2023-02-05T00:18:50;16.35;;;10.95;;
59074;SDS011;44860;53.020;6.738;2023-02-05T00:21:16;13.93;;;10.77;;
59074;SDS011;44860;53.020;6.738;2023-02-05T00:23:43;16.55;;;10.95;;
59074;SDS011;44860;53.020;6.738;2023-02-05T00:26:09;16.73;;;11.27;;
59074;SDS011;44860;53.020;6.738;2023-02-05T00:28:35;14.85;;;10.65;;
59074;SDS011;44860;53.020;6.738;2023-02-05T00:31:06;15.50;;;11.18;;
59074;SDS011;44860;53.020;6.738;2023-02-05T00:33:52;19.48;;;10.80;;
59074;SDS011;44860;53.020;6.738;2023-02-05T00:36:19;13.18;;;10.55;;
59074;SDS011;44860;53.020;6.738;2023-02-05T00:38:46;14.07;;;11.02;;
59074;SDS011;44860;53.020;6.738;2023-02-05T00:41:12;14.75;;;11.38;;
59074;SDS011;44860;53.020;6.738;2023-02-05T00:43:38;16.13;;;10.90;;
59074;SDS011;44860;53.020;6.738;2023-02-05T00:46:04;16.23;;;11.60;;
59074;SDS011;44860;53.020;6.738;2023-02-05T00:48:30;15.73;;;11.57;;
59074;SDS011;44860;53.020;6.738;2023-02-05T00:50:56;16.20;;;12.00;;
59074;SDS011;44860;53.020;6.738;2023-02-05T00:53:22;19.42;;;12.40;;
59074;SDS011;44860;53.020;6.738;2023-02-05T00:55:48;16.50;;;11.63;;
59074;SDS011;44860;53.020;6.738;2023-02-05T00:58:14;17.27;;;11.45;;
59074;SDS011;44860;53.020;6.738;2023-02-05T01:00:40;17.50;;;11.82;;
59074;SDS011;44860;53.020;6.738;2023-02-05T01:03:06;16.52;;;11.25;;
59074;SDS011;44860;53.020;6.738;2023-02-05T01:05:32;16.55;;;11.88;;
59074;SDS011;44860;53.020;6.738;2023-02-05T01:07:59;15.88;;;12.02;;
59074;SDS011;44860;53.020;6.738;2023-02-05T01:10:24;14.73;;;11.65;;
59074;SDS011;44860;53.020;6.738;2023-02-05T01:12:50;16.63;;;12.48;;
59074;SDS011;44860;53.020;6.738;2023-02-05T01:15:16;19.73;;;12.55;;
59074;SDS011;44860;53.020;6.738;2023-02-05T01:17:42;16.52;;;12.18;;
59074;SDS011;44860;53.020;6.738;2023-02-05T01:20:08;18.20;;;12.38;;
59074;SDS011;44860;53.020;6.738;2023-02-05T01:22:35;18.33;;;12.30;;
59074;SDS011;44860;53.020;6.738;2023-02-05T01:25:01;19.70;;;12.63;;
59074;SDS011;44860;53.020;6.738;2023-02-05T01:27:27;20.70;;;12.52;;
59074;SDS011;44860;53.020;6.738;2023-02-05T01:29:53;20.55;;;12.15;;
59074;SDS011;44860;53.020;6.738;2023-02-05T01:32:19;22.42;;;12.75;;
59074;SDS011;44860;53.020;6.738;2023-02-05T01:34:44;20.67;;;12.15;;
59074;SDS011;44860;53.020;6.738;2023-02-05T01:37:10;21.58;;;13.23;;
59074;SDS011;44860;53.020;6.738;2023-02-05T01:39:36;20.27;;;12.50;;
59074;SDS011;44860;53.020;6.738;2023-02-05T01:42:03;18.50;;;11.80;;
59074;SDS011;44860;53.020;6.738;2023-02-05T01:44:39;20.85;;;12.35;;
59074;SDS011;44860;53.020;6.738;2023-02-05T01:47:05;20.42;;;12.13;;
59074;SDS011;44860;53.020;6.738;2023-02-05T01:49:38;18.45;;;12.15;;
59074;SDS011;44860;53.020;6.738;2023-02-05T01:52:08;19.23;;;12.68;;
59074;SDS011;44860;53.020;6.738;2023-02-05T01:54:38;24.45;;;13.18;;
59074;SDS011;44860;53.020;6.738;2023-02-05T01:57:16;21.13;;;12.48;;
59074;SDS011;44860;53.020;6.738;2023-02-05T01:59:44;20.15;;;12.30;;
59074;SDS011;44860;53.020;6.738;2023-02-05T02:02:13;23.88;;;12.98;;
59074;SDS011;44860;53.020;6.738;2023-02-05T02:04:43;24.38;;;13.13;;
59074;SDS011;44860;53.020;6.738;2023-02-05T02:07:15;21.98;;;12.75;;
59074;SDS011;44860;53.020;6.738;2023-02-05T02:09:44;21.35;;;12.65;;
59074;SDS011;44860;53.020;6.738;2023-02-05T02:12:12;22.45;;;12.50;;
59074;SDS011;44860;53.020;6.738;2023-02-05T02:14:42;19.83;;;12.02;;
59074;SDS011;44860;53.020;6.738;2023-02-05T02:17:11;26.27;;;13.77;;
59074;SDS011;44860;53.020;6.738;2023-02-05T02:19:40;20.17;;;13.27;;
59074;SDS011;44860;53.020;6.738;2023-02-05T02:22:25;20.73;;;12.93;;
59074;SDS011;44860;53.020;6.738;2023-02-05T02:27:47;21.65;;;13.13;;
59074;SDS011;44860;53.020;6.738;2023-02-05T02:30:38;27.08;;;13.90;;
59074;SDS011;44860;53.020;6.738;2023-02-05T02:35:49;26.85;;;13.65;;
59074;SDS011;44860;53.020;6.738;2023-02-05T02:46:25;34.05;;;14.95;;
59074;SDS011;44860;53.020;6.738;2023-02-05T02:48:57;29.53;;;16.00;;
59074;SDS011;44860;53.020;6.738;2023-02-05T02:51:26;30.75;;;15.93;;
59074;SDS011;44860;53.020;6.738;2023-02-05T02:53:57;31.35;;;14.85;;
59074;SDS011;44860;53.020;6.738;2023-02-05T02:56:25;24.92;;;14.73;;
59074;SDS011;44860;53.020;6.738;2023-02-05T02:58:53;25.85;;;15.18;;
59074;SDS011;44860;53.020;6.738;2023-02-05T03:01:23;29.90;;;16.13;;
59074;SDS011;44860;53.020;6.738;2023-02-05T03:03:53;33.55;;;16.25;;
59074;SDS011;44860;53.020;6.738;2023-02-05T03:06:24;27.88;;;16.23;;
59074;SDS011;44860;53.020;6.738;2023-02-05T03:08:53;33.05;;;16.75;;
59074;SDS011;44860;53.020;6.738;2023-02-05T03:11:23;33.53;;;17.00;;
59074;SDS011;44860;53.020;6.738;2023-02-05T03:13:50;31.13;;;17.42;;
59074;SDS011;44860;53.020;6.738;2023-02-05T03:16:17;34.97;;;18.08;;
59074;SDS011;44860;53.020;6.738;2023-02-05T03:18:43;33.78;;;17.50;;
59074;SDS011;44860;53.020;6.738;2023-02-05T03:21:17;34.10;;;17.52;;
59074;SDS011;44860;53.020;6.738;2023-02-05T03:23:48;38.80;;;19.00;;
59074;SDS011;44860;53.020;6.738;2023-02-05T03:26:28;38.83;;;19.67;;
59074;SDS011;44860;53.020;6.738;2023-02-05T03:28:55;34.97;;;18.08;;
59074;SDS011;44860;53.020;6.738;2023-02-05T03:36:54;35.28;;;19.50;;
59074;SDS011;44860;53.020;6.738;2023-02-05T03:39:44;36.72;;;19.90;;
59074;SDS011;44860;53.020;6.738;2023-02-05T03:50:38;40.95;;;20.75;;
59074;SDS011;44860;53.020;6.738;2023-02-05T03:56:11;49.47;;;21.63;;
59074;SDS011;44860;53.020;6.738;2023-02-05T03:58:48;42.80;;;21.17;;
59074;SDS011;44860;53.020;6.738;2023-02-05T04:01:17;45.15;;;21.83;;
59074;SDS011;44860;53.020;6.738;2023-02-05T04:03:44;56.50;;;23.58;;
59074;SDS011;44860;53.020;6.738;2023-02-05T04:06:10;62.35;;;26.02;;
59074;SDS011;44860;53.020;6.738;2023-02-05T04:08:36;57.10;;;24.42;;
59074;SDS011;44860;53.020;6.738;2023-02-05T04:11:02;52.63;;;24.00;;
59074;SDS011;44860;53.020;6.738;2023-02-05T04:13:27;55.17;;;23.92;;
59074;SDS011;44860;53.020;6.738;2023-02-05T04:15:53;46.90;;;23.55;;
59074;SDS011;44860;53.020;6.738;2023-02-05T04:18:19;49.08;;;22.00;;
59074;SDS011;44860;53.020;6.738;2023-02-05T04:20:44;48.88;;;23.67;;
59074;SDS011;44860;53.020;6.738;2023-02-05T04:23:10;56.30;;;24.25;;
59074;SDS011;44860;53.020;6.738;2023-02-05T04:25:36;50.60;;;23.50;;
59074;SDS011;44860;53.020;6.738;2023-02-05T04:28:03;60.83;;;25.50;;
59074;SDS011;44860;53.020;6.738;2023-02-05T04:30:30;63.67;;;26.15;;
59074;SDS011;44860;53.020;6.738;2023-02-05T04:32:56;65.55;;;27.00;;
59074;SDS011;44860;53.020;6.738;2023-02-05T04:35:22;56.70;;;24.75;;
59074;SDS011;44860;53.020;6.738;2023-02-05T04:37:47;51.05;;;24.35;;
59074;SDS011;44860;53.020;6.738;2023-02-05T04:40:13;58.85;;;25.10;;
59074;SDS011;44860;53.020;6.738;2023-02-05T04:42:39;60.88;;;25.48;;
59074;SDS011;44860;53.020;6.738;2023-02-05T04:45:05;62.97;;;26.92;;
59074;SDS011;44860;53.020;6.738;2023-02-05T04:47:31;69.05;;;26.60;;
59074;SDS011;44860;53.020;6.738;2023-02-05T04:49:57;58.47;;;26.52;;
59074;SDS011;44860;53.020;6.738;2023-02-05T04:52:22;71.35;;;26.35;;
59074;SDS011;44860;53.020;6.738;2023-02-05T04:54:48;59.60;;;26.25;;
59074;SDS011;44860;53.020;6.738;2023-02-05T04:57:14;60.30;;;25.92;;
59074;SDS011;44860;53.020;6.738;2023-02-05T04:59:39;61.35;;;26.85;;
59074;SDS011;44860;53.020;6.738;2023-02-05T05:02:05;57.22;;;25.42;;
59074;SDS011;44860;53.020;6.738;2023-02-05T05:04:31;61.63;;;25.88;;
59074;SDS011;44860;53.020;6.738;2023-02-05T05:06:56;65.15;;;26.70;;
59074;SDS011;44860;53.020;6.738;2023-02-05T05:09:22;53.85;;;25.85;;
59074;SDS011;44860;53.020;6.738;2023-02-05T05:11:52;54.47;;;25.25;;
59074;SDS011;44860;53.020;6.738;2023-02-05T05:14:20;59.67;;;26.05;;
59074;SDS011;44860;53.020;6.738;2023-02-05T05:16:46;64.55;;;25.45;;
59074;SDS011;44860;53.020;6.738;2023-02-05T05:19:12;59.90;;;24.75;;
59074;SDS011;44860;53.020;6.738;2023-02-05T05:21:38;53.10;;;25.38;;
59074;SDS011;44860;53.020;6.738;2023-02-05T05:24:04;58.45;;;25.77;;
59074;SDS011;44860;53.020;6.738;2023-02-05T05:26:30;61.33;;;24.83;;
59074;SDS011;44860;53.020;6.738;2023-02-05T05:28:56;53.85;;;24.67;;
59074;SDS011;44860;53.020;6.738;2023-02-05T05:31:22;56.25;;;25.40;;
59074;SDS011;44860;53.020;6.738;2023-02-05T05:33:48;67.00;;;25.48;;
59074;SDS011;44860;53.020;6.738;2023-02-05T05:36:14;57.28;;;24.42;;
59074;SDS011;44860;53.020;6.738;2023-02-05T05:38:40;51.80;;;22.38;;
59074;SDS011;44860;53.020;6.738;2023-02-05T05:41:06;61.83;;;24.45;;
59074;SDS011;44860;53.020;6.738;2023-02-05T05:43:54;49.97;;;22.75;;
59074;SDS011;44860;53.020;6.738;2023-02-05T05:46:21;47.38;;;22.90;;
59074;SDS011;44860;53.020;6.738;2023-02-05T05:48:54;50.10;;;21.63;;
59074;SDS011;44860;53.020;6.738;2023-02-05T05:51:22;39.00;;;19.70;;
59074;SDS011;44860;53.020;6.738;2023-02-05T05:53:49;46.05;;;19.27;;
59074;SDS011;44860;53.020;6.738;2023-02-05T05:56:15;46.85;;;19.52;;
59074;SDS011;44860;53.020;6.738;2023-02-05T05:58:41;33.78;;;16.80;;
59074;SDS011;44860;53.020;6.738;2023-02-05T06:01:07;29.90;;;14.23;;
59074;SDS011;44860;53.020;6.738;2023-02-05T06:03:34;23.65;;;10.90;;
59074;SDS011;44860;53.020;6.738;2023-02-05T06:06:01;22.17;;;9.30;;
59074;SDS011;44860;53.020;6.738;2023-02-05T06:08:31;22.35;;;7.65;;
59074;SDS011;44860;53.020;6.738;2023-02-05T06:10:57;18.88;;;7.57;;
59074;SDS011;44860;53.020;6.738;2023-02-05T06:13:23;17.25;;;6.70;;
59074;SDS011;44860;53.020;6.738;2023-02-05T06:15:49;16.02;;;6.95;;
59074;SDS011;44860;53.020;6.738;2023-02-05T06:18:15;19.85;;;6.50;;
59074;SDS011;44860;53.020;6.738;2023-02-05T06:20:42;18.10;;;5.03;;
59074;SDS011;44860;53.020;6.738;2023-02-05T06:23:07;15.60;;;4.32;;
59074;SDS011;44860;53.020;6.738;2023-02-05T06:25:33;15.25;;;3.47;;
59074;SDS011;44860;53.020;6.738;2023-02-05T06:27:59;16.02;;;2.92;;
59074;SDS011;44860;53.020;6.738;2023-02-05T06:30:25;14.88;;;2.45;;
59074;SDS011;44860;53.020;6.738;2023-02-05T06:32:50;10.50;;;2.40;;
59074;SDS011;44860;53.020;6.738;2023-02-05T06:35:16;14.57;;;2.20;;
59074;SDS011;44860;53.020;6.738;2023-02-05T06:37:42;12.80;;;1.42;;
59074;SDS011;44860;53.020;6.738;2023-02-05T06:40:08;12.00;;;2.17;;
59074;SDS011;44860;53.020;6.738;2023-02-05T06:42:35;14.18;;;2.17;;
59074;SDS011;44860;53.020;6.738;2023-02-05T06:45:01;12.27;;;2.40;;
59074;SDS011;44860;53.020;6.738;2023-02-05T06:47:27;11.73;;;2.35;;
59074;SDS011;44860;53.020;6.738;2023-02-05T06:49:53;19.52;;;1.90;;
59074;SDS011;44860;53.020;6.738;2023-02-05T06:52:19;15.18;;;2.03;;
59074;SDS011;44860;53.020;6.738;2023-02-05T06:54:44;14.82;;;2.20;;
59074;SDS011;44860;53.020;6.738;2023-02-05T06:57:10;16.08;;;2.38;;
59074;SDS011;44860;53.020;6.738;2023-02-05T06:59:36;11.57;;;1.77;;
59074;SDS011;44860;53.020;6.738;2023-02-05T07:02:01;16.70;;;2.42;;
59074;SDS011;44860;53.020;6.738;2023-02-05T07:04:28;16.48;;;2.28;;
59074;SDS011;44860;53.020;6.738;2023-02-05T07:06:55;15.18;;;2.05;;
59074;SDS011;44860;53.020;6.738;2023-02-05T07:09:21;15.43;;;2.78;;
59074;SDS011;44860;53.020;6.738;2023-02-05T07:11:47;15.10;;;1.95;;
59074;SDS011;44860;53.020;6.738;2023-02-05T07:14:12;15.05;;;1.85;;
59074;SDS011;44860;53.020;6.738;2023-02-05T07:16:39;14.15;;;2.35;;
59074;SDS011;44860;53.020;6.738;2023-02-05T07:19:04;13.10;;;2.42;;
59074;SDS011;44860;53.020;6.738;2023-02-05T07:21:30;13.52;;;2.35;;
59074;SDS011;44860;53.020;6.738;2023-02-05T07:23:56;14.38;;;2.10;;
59074;SDS011;44860;53.020;6.738;2023-02-05T07:26:22;14.88;;;2.85;;
59074;SDS011;44860;53.020;6.738;2023-02-05T07:28:47;15.65;;;3.40;;
59074;SDS011;44860;53.020;6.738;2023-02-05T07:31:14;14.52;;;2.00;;
59074;SDS011;44860;53.020;6.738;2023-02-05T07:33:42;19.15;;;2.55;;
59074;SDS011;44860;53.020;6.738;2023-02-05T07:36:09;15.20;;;2.25;;
59074;SDS011;44860;53.020;6.738;2023-02-05T07:38:37;20.25;;;2.78;;
59074;SDS011;44860;53.020;6.738;2023-02-05T07:41:04;19.13;;;2.22;;
59074;SDS011;44860;53.020;6.738;2023-02-05T07:43:30;12.32;;;2.08;;
59074;SDS011;44860;53.020;6.738;2023-02-05T07:45:58;14.27;;;2.38;;
59074;SDS011;44860;53.020;6.738;2023-02-05T07:48:25;12.93;;;2.15;;
59074;SDS011;44860;53.020;6.738;2023-02-05T07:50:50;12.70;;;1.70;;
59074;SDS011;44860;53.020;6.738;2023-02-05T07:53:16;10.98;;;1.90;;
59074;SDS011;44860;53.020;6.738;2023-02-05T07:55:42;15.25;;;2.50;;
59074;SDS011;44860;53.020;6.738;2023-02-05T07:58:11;11.38;;;1.70;;
59074;SDS011;44860;53.020;6.738;2023-02-05T08:00:37;15.13;;;2.08;;
59074;SDS011;44860;53.020;6.738;2023-02-05T08:03:03;16.13;;;2.35;;
59074;SDS011;44860;53.020;6.738;2023-02-05T08:05:29;14.13;;;2.28;;
59074;SDS011;44860;53.020;6.738;2023-02-05T08:07:54;14.73;;;1.85;;
59074;SDS011;44860;53.020;6.738;2023-02-05T08:10:20;15.18;;;2.42;;
59074;SDS011;44860;53.020;6.738;2023-02-05T08:12:49;14.10;;;2.08;;
59074;SDS011;44860;53.020;6.738;2023-02-05T08:15:14;11.98;;;1.80;;
59074;SDS011;44860;53.020;6.738;2023-02-05T08:17:40;16.10;;;2.60;;
59074;SDS011;44860;53.020;6.738;2023-02-05T08:20:09;17.75;;;2.30;;
59074;SDS011;44860;53.020;6.738;2023-02-05T08:22:39;18.48;;;2.60;;
59074;SDS011;44860;53.020;6.738;2023-02-05T08:25:07;21.08;;;2.58;;
59074;SDS011;44860;53.020;6.738;2023-02-05T08:27:39;16.25;;;2.55;;
59074;SDS011;44860;53.020;6.738;2023-02-05T08:30:08;16.08;;;2.00;;
59074;SDS011;44860;53.020;6.738;2023-02-05T08:32:40;14.00;;;1.98;;
59074;SDS011;44860;53.020;6.738;2023-02-05T08:35:06;15.25;;;2.17;;
59074;SDS011;44860;53.020;6.738;2023-02-05T08:37:34;11.02;;;2.20;;
59074;SDS011;44860;53.020;6.738;2023-02-05T08:39:59;14.68;;;3.25;;
59074;SDS011;44860;53.020;6.738;2023-02-05T08:42:25;19.38;;;2.75;;
59074;SDS011;44860;53.020;6.738;2023-02-05T08:44:54;18.00;;;2.72;;
59074;SDS011;44860;53.020;6.738;2023-02-05T08:47:22;25.60;;;3.13;;
59074;SDS011;44860;53.020;6.738;2023-02-05T08:49:49;20.40;;;2.92;;
59074;SDS011;44860;53.020;6.738;2023-02-05T08:52:14;24.88;;;2.70;;
59074;SDS011;44860;53.020;6.738;2023-02-05T08:54:40;23.60;;;3.50;;
59074;SDS011;44860;53.020;6.738;2023-02-05T08:57:06;17.05;;;2.53;;
59074;SDS011;44860;53.020;6.738;2023-02-05T08:59:33;21.27;;;4.15;;
59074;SDS011;44860;53.020;6.738;2023-02-05T09:01:59;17.83;;;4.13;;
59074;SDS011;44860;53.020;6.738;2023-02-05T09:04:26;16.20;;;2.92;;
59074;SDS011;44860;53.020;6.738;2023-02-05T09:06:51;15.98;;;2.38;;
59074;SDS011;44860;53.020;6.738;2023-02-05T09:09:17;17.50;;;2.63;;
59074;SDS011;44860;53.020;6.738;2023-02-05T09:11:46;15.23;;;1.95;;
59074;SDS011;44860;53.020;6.738;2023-02-05T09:14:12;15.52;;;2.38;;
59074;SDS011;44860;53.020;6.738;2023-02-05T09:16:38;14.38;;;2.70;;
59074;SDS011;44860;53.020;6.738;2023-02-05T09:19:04;22.48;;;2.33;;
59074;SDS011;44860;53.020;6.738;2023-02-05T09:21:30;19.15;;;2.10;;
59074;SDS011;44860;53.020;6.738;2023-02-05T09:23:55;12.57;;;1.95;;
59074;SDS011;44860;53.020;6.738;2023-02-05T09:26:22;13.25;;;2.40;;
59074;SDS011;44860;53.020;6.738;2023-02-05T09:28:48;8.90;;;1.50;;
59074;SDS011;44860;53.020;6.738;2023-02-05T09:31:14;15.10;;;3.38;;
59074;SDS011;44860;53.020;6.738;2023-02-05T09:33:43;12.10;;;1.95;;
59074;SDS011;44860;53.020;6.738;2023-02-05T09:36:16;12.27;;;2.10;;
59074;SDS011;44860;53.020;6.738;2023-02-05T09:38:44;17.92;;;2.15;;
59074;SDS011;44860;53.020;6.738;2023-02-05T09:43:46;10.60;;;2.03;;
59074;SDS011;44860;53.020;6.738;2023-02-05T09:48:48;11.40;;;1.98;;
59074;SDS011;44860;53.020;6.738;2023-02-05T09:51:29;11.48;;;1.80;;
59074;SDS011;44860;53.020;6.738;2023-02-05T09:56:52;12.77;;;1.70;;
59074;SDS011;44860;53.020;6.738;2023-02-05T09:59:22;14.75;;;2.75;;
59074;SDS011;44860;53.020;6.738;2023-02-05T10:01:59;14.90;;;2.30;;
59074;SDS011;44860;53.020;6.738;2023-02-05T10:04:27;15.70;;;2.08;;
59074;SDS011;44860;53.020;6.738;2023-02-05T10:07:12;15.23;;;2.45;;
59074;SDS011;44860;53.020;6.738;2023-02-05T10:09:49;17.40;;;2.60;;
59074;SDS011;44860;53.020;6.738;2023-02-05T10:17:53;17.38;;;2.60;;
59074;SDS011;44860;53.020;6.738;2023-02-05T10:33:52;24.90;;;3.80;;
59074;SDS011;44860;53.020;6.738;2023-02-05T10:36:21;26.55;;;3.63;;
59074;SDS011;44860;53.020;6.738;2023-02-05T10:38:49;28.77;;;4.07;;
59074;SDS011;44860;53.020;6.738;2023-02-05T10:44:12;28.83;;;4.45;;
59074;SDS011;44860;53.020;6.738;2023-02-05T10:46:41;30.83;;;4.30;;
59074;SDS011;44860;53.020;6.738;2023-02-05T10:52:10;19.05;;;3.83;;
59074;SDS011;44860;53.020;6.738;2023-02-05T10:54:37;21.15;;;3.75;;
59074;SDS011;44860;53.020;6.738;2023-02-05T10:57:08;21.50;;;3.45;;
59074;SDS011;44860;53.020;6.738;2023-02-05T11:00:02;24.10;;;3.70;;
59074;SDS011;44860;53.020;6.738;2023-02-05T11:02:41;27.75;;;3.58;;
59074;SDS011;44860;53.020;6.738;2023-02-05T11:07:59;18.10;;;3.40;;
59074;SDS011;44860;53.020;6.738;2023-02-05T11:10:30;19.98;;;3.70;;
59074;SDS011;44860;53.020;6.738;2023-02-05T11:13:03;20.38;;;3.30;;
59074;SDS011;44860;53.020;6.738;2023-02-05T11:18:21;22.00;;;3.53;;
59074;SDS011;44860;53.020;6.738;2023-02-05T11:20:56;22.67;;;3.95;;
59074;SDS011;44860;53.020;6.738;2023-02-05T11:23:27;26.98;;;3.88;;
59074;SDS011;44860;53.020;6.738;2023-02-05T11:26:25;27.45;;;3.90;;
59074;SDS011;44860;53.020;6.738;2023-02-05T11:28:57;33.10;;;4.40;;
59074;SDS011;44860;53.020;6.738;2023-02-05T11:31:32;25.42;;;4.43;;
59074;SDS011;44860;53.020;6.738;2023-02-05T11:36:46;29.50;;;4.32;;
59074;SDS011;44860;53.020;6.738;2023-02-05T11:39:32;30.52;;;4.68;;
59074;SDS011;44860;53.020;6.738;2023-02-05T11:44:54;37.53;;;5.05;;
59074;SDS011;44860;53.020;6.738;2023-02-05T11:47:29;30.77;;;4.45;;
59074;SDS011;44860;53.020;6.738;2023-02-05T11:52:24;42.20;;;5.70;;
59074;SDS011;44860;53.020;6.738;2023-02-05T11:54:52;29.33;;;4.75;;
59074;SDS011;44860;53.020;6.738;2023-02-05T11:59:54;34.67;;;5.03;;
59074;SDS011;44860;53.020;6.738;2023-02-05T12:07:55;31.95;;;5.65;;
59074;SDS011;44860;53.020;6.738;2023-02-05T12:16:06;35.08;;;5.90;;
59074;SDS011;44860;53.020;6.738;2023-02-05T12:19:04;32.70;;;5.60;;
59074;SDS011;44860;53.020;6.738;2023-02-05T12:57:52;30.98;;;5.03;;
59074;SDS011;44860;53.020;6.738;2023-02-05T13:00:25;40.30;;;10.13;;
59074;SDS011;44860;53.020;6.738;2023-02-05T13:02:58;31.52;;;4.68;;
59074;SDS011;44860;53.020;6.738;2023-02-05T13:05:51;30.40;;;4.72;;
59074;SDS011;44860;53.020;6.738;2023-02-05T13:11:40;30.77;;;5.57;;
59074;SDS011;44860;53.020;6.738;2023-02-05T13:16:50;31.42;;;5.45;;
59074;SDS011;44860;53.020;6.738;2023-02-05T13:19:34;33.17;;;4.65;;
59074;SDS011;44860;53.020;6.738;2023-02-05T13:22:14;31.67;;;5.05;;
59074;SDS011;44860;53.020;6.738;2023-02-05T13:28:15;32.03;;;5.38;;
59074;SDS011;44860;53.020;6.738;2023-02-05T13:33:47;35.40;;;5.55;;
59074;SDS011;44860;53.020;6.738;2023-02-05T13:52:20;29.02;;;4.50;;
59074;SDS011;44860;53.020;6.738;2023-02-05T14:00:10;22.52;;;4.82;;
59074;SDS011;44860;53.020;6.738;2023-02-05T14:02:42;29.80;;;5.07;;
59074;SDS011;44860;53.020;6.738;2023-02-05T14:05:12;21.30;;;4.38;;
59074;SDS011;44860;53.020;6.738;2023-02-05T14:07:45;28.10;;;5.60;;
59074;SDS011;44860;53.020;6.738;2023-02-05T14:10:22;25.95;;;4.28;;
59074;SDS011;44860;53.020;6.738;2023-02-05T14:15:46;35.58;;;5.30;;
59074;SDS011;44860;53.020;6.738;2023-02-05T14:23:56;32.15;;;4.57;;
59074;SDS011;44860;53.020;6.738;2023-02-05T14:32:08;30.05;;;6.05;;
59074;SDS011;44860;53.020;6.738;2023-02-05T14:37:01;36.13;;;5.95;;
59074;SDS011;44860;53.020;6.738;2023-02-05T14:39:28;32.75;;;6.22;;
59074;SDS011;44860;53.020;6.738;2023-02-05T14:41:57;32.78;;;5.95;;
59074;SDS011;44860;53.020;6.738;2023-02-05T14:44:30;32.95;;;7.63;;
59074;SDS011;44860;53.020;6.738;2023-02-05T14:47:00;39.20;;;6.10;;
59074;SDS011;44860;53.020;6.738;2023-02-05T14:50:06;37.08;;;6.10;;
59074;SDS011;44860;53.020;6.738;2023-02-05T14:52:38;34.45;;;5.57;;
59074;SDS011;44860;53.020;6.738;2023-02-05T14:57:41;36.83;;;6.60;;
59074;SDS011;44860;53.020;6.738;2023-02-05T15:00:20;37.30;;;7.40;;
59074;SDS011;44860;53.020;6.738;2023-02-05T15:05:40;34.63;;;5.78;;
59074;SDS011;44860;53.020;6.738;2023-02-05T15:13:27;32.58;;;5.97;;
59074;SDS011;44860;53.020;6.738;2023-02-05T15:18:41;37.13;;;7.10;;
59074;SDS011;44860;53.020;6.738;2023-02-05T15:23:54;40.30;;;6.28;;
59074;SDS011;44860;53.020;6.738;2023-02-05T15:31:44;39.80;;;7.75;;
59074;SDS011;44860;53.020;6.738;2023-02-05T15:37:06;43.83;;;7.82;;
59074;SDS011;44860;53.020;6.738;2023-02-05T15:39:46;43.03;;;8.07;;
59074;SDS011;44860;53.020;6.738;2023-02-05T15:42:19;41.22;;;6.97;;
59074;SDS011;44860;53.020;6.738;2023-02-05T15:44:50;44.10;;;7.13;;
59074;SDS011;44860;53.020;6.738;2023-02-05T15:47:17;35.60;;;7.05;;
59074;SDS011;44860;53.020;6.738;2023-02-05T15:49:46;43.17;;;7.70;;
59074;SDS011;44860;53.020;6.738;2023-02-05T15:52:16;41.33;;;7.65;;
59074;SDS011;44860;53.020;6.738;2023-02-05T15:54:45;33.17;;;7.35;;
59074;SDS011;44860;53.020;6.738;2023-02-05T15:57:17;36.00;;;7.25;;
59074;SDS011;44860;53.020;6.738;2023-02-05T15:59:48;39.65;;;7.13;;
59074;SDS011;44860;53.020;6.738;2023-02-05T16:02:16;31.58;;;6.03;;
59074;SDS011;44860;53.020;6.738;2023-02-05T16:05:14;36.08;;;6.60;;
59074;SDS011;44860;53.020;6.738;2023-02-05T16:07:42;39.47;;;6.90;;
59074;SDS011;44860;53.020;6.738;2023-02-05T16:15:36;31.67;;;5.97;;
59074;SDS011;44860;53.020;6.738;2023-02-05T16:18:10;41.67;;;6.72;;
59074;SDS011;44860;53.020;6.738;2023-02-05T16:20:50;39.33;;;6.18;;
59074;SDS011;44860;53.020;6.738;2023-02-05T16:23:26;34.45;;;5.55;;
59074;SDS011;44860;53.020;6.738;2023-02-05T16:26:00;34.97;;;6.40;;
59074;SDS011;44860;53.020;6.738;2023-02-05T16:30:55;30.77;;;6.03;;
59074;SDS011;44860;53.020;6.738;2023-02-05T16:33:29;40.08;;;7.38;;
59074;SDS011;44860;53.020;6.738;2023-02-05T16:36:14;42.38;;;6.07;;
59074;SDS011;44860;53.020;6.738;2023-02-05T16:38:48;31.77;;;5.85;;
59074;SDS011;44860;53.020;6.738;2023-02-05T16:41:17;37.85;;;6.05;;
59074;SDS011;44860;53.020;6.738;2023-02-05T16:43:52;40.33;;;6.53;;
59074;SDS011;44860;53.020;6.738;2023-02-05T16:46:23;41.45;;;6.53;;
59074;SDS011;44860;53.020;6.738;2023-02-05T16:48:52;45.72;;;6.53;;
59074;SDS011;44860;53.020;6.738;2023-02-05T16:52:12;39.33;;;6.70;;
59074;SDS011;44860;53.020;6.738;2023-02-05T16:56:37;43.65;;;6.78;;
59074;SDS011;44860;53.020;6.738;2023-02-05T16:59:15;34.92;;;6.30;;
59074;SDS011;44860;53.020;6.738;2023-02-05T17:01:44;40.15;;;5.82;;
59074;SDS011;44860;53.020;6.738;2023-02-05T17:04:23;34.65;;;6.25;;
59074;SDS011;44860;53.020;6.738;2023-02-05T17:07:01;37.38;;;6.30;;
59074;SDS011;44860;53.020;6.738;2023-02-05T17:09:36;41.33;;;7.75;;
59074;SDS011;44860;53.020;6.738;2023-02-05T17:12:25;34.80;;;5.78;;
59074;SDS011;44860;53.020;6.738;2023-02-05T17:15:00;50.28;;;7.05;;
59074;SDS011;44860;53.020;6.738;2023-02-05T17:17:55;33.90;;;5.60;;
59074;SDS011;44860;53.020;6.738;2023-02-05T17:20:22;37.55;;;5.88;;
59074;SDS011;44860;53.020;6.738;2023-02-05T17:25:27;37.55;;;6.50;;
59074;SDS011;44860;53.020;6.738;2023-02-05T17:27:56;44.33;;;7.38;;
59074;SDS011;44860;53.020;6.738;2023-02-05T17:30:21;42.13;;;9.02;;
59074;SDS011;44860;53.020;6.738;2023-02-05T17:32:50;44.45;;;7.88;;
59074;SDS011;44860;53.020;6.738;2023-02-05T17:35:16;38.38;;;8.48;;
59074;SDS011;44860;53.020;6.738;2023-02-05T17:37:49;42.85;;;8.20;;
59074;SDS011;44860;53.020;6.738;2023-02-05T17:40:15;36.92;;;6.10;;
59074;SDS011;44860;53.020;6.738;2023-02-05T17:42:41;37.17;;;7.18;;
59074;SDS011;44860;53.020;6.738;2023-02-05T17:45:15;40.50;;;6.97;;
59074;SDS011;44860;53.020;6.738;2023-02-05T17:47:53;34.13;;;6.20;;
59074;SDS011;44860;53.020;6.738;2023-02-05T17:50:19;39.38;;;6.30;;
59074;SDS011;44860;53.020;6.738;2023-02-05T17:52:44;40.58;;;7.15;;
59074;SDS011;44860;53.020;6.738;2023-02-05T17:55:11;29.77;;;5.72;;
59074;SDS011;44860;53.020;6.738;2023-02-05T17:57:38;37.13;;;6.38;;
59074;SDS011;44860;53.020;6.738;2023-02-05T18:00:07;35.92;;;9.20;;
59074;SDS011;44860;53.020;6.738;2023-02-05T18:02:38;42.47;;;7.85;;
59074;SDS011;44860;53.020;6.738;2023-02-05T18:05:03;41.40;;;6.13;;
59074;SDS011;44860;53.020;6.738;2023-02-05T18:10:31;41.47;;;6.75;;
59074;SDS011;44860;53.020;6.738;2023-02-05T18:12:59;32.25;;;5.65;;
59074;SDS011;44860;53.020;6.738;2023-02-05T18:15:25;33.58;;;5.18;;
59074;SDS011;44860;53.020;6.738;2023-02-05T18:17:52;33.95;;;5.45;;
59074;SDS011;44860;53.020;6.738;2023-02-05T18:20:18;31.50;;;5.45;;